createdAt,value
2023-10-30T00:01:05.799Z,16.34
2023-10-30T00:03:32.327Z,16.33
2023-10-30T00:05:58.695Z,16.31
2023-10-30T00:08:25.144Z,16.28
2023-10-30T00:10:51.574Z,16.24
2023-10-30T00:13:18.108Z,16.16
2023-10-30T00:15:44.564Z,16.13
2023-10-30T00:18:11.141Z,16.10
2023-10-30T00:20:37.503Z,16.05
2023-10-30T00:23:04.047Z,15.98
2023-10-30T00:25:30.392Z,15.92
2023-10-30T00:27:56.827Z,15.87
2023-10-30T00:30:23.255Z,15.82
2023-10-30T00:32:49.763Z,15.77
2023-10-30T00:35:16.063Z,15.75
2023-10-30T00:37:42.472Z,15.72
2023-10-30T00:40:08.965Z,15.72
2023-10-30T00:42:35.526Z,15.72
2023-10-30T00:45:01.904Z,15.67
2023-10-30T00:47:28.389Z,15.62
2023-10-30T00:49:54.768Z,15.58
2023-10-30T00:52:21.230Z,15.54
2023-10-30T00:54:47.577Z,15.51
2023-10-30T00:57:14.088Z,15.48
2023-10-30T00:59:40.539Z,15.49
2023-10-30T01:02:07.112Z,15.47
2023-10-30T01:04:33.579Z,15.44
2023-10-30T01:06:59.844Z,15.41
2023-10-30T01:09:26.300Z,15.38
2023-10-30T01:11:52.705Z,15.34
2023-10-30T01:14:19.234Z,15.33
2023-10-30T01:16:45.742Z,15.36
2023-10-30T01:19:12.184Z,15.33
2023-10-30T01:21:38.698Z,15.29
2023-10-30T01:24:05.112Z,15.26
2023-10-30T01:26:31.512Z,15.20
2023-10-30T01:28:58.183Z,15.14
2023-10-30T01:31:24.664Z,15.11
2023-10-30T01:33:51.151Z,15.13
2023-10-30T01:36:17.597Z,15.11
2023-10-30T01:38:43.910Z,15.04
2023-10-30T01:41:10.362Z,15.03
2023-10-30T01:43:36.712Z,15.05
2023-10-30T01:46:03.189Z,15.00
2023-10-30T01:48:29.607Z,15.01
2023-10-30T01:50:56.041Z,15.00
2023-10-30T01:53:22.400Z,14.94
2023-10-30T01:55:48.905Z,14.91
2023-10-30T01:58:15.335Z,14.87
2023-10-30T02:00:41.847Z,14.83
2023-10-30T02:03:08.242Z,14.84
2023-10-30T02:05:34.631Z,14.88
2023-10-30T02:08:00.983Z,14.84
2023-10-30T02:10:27.512Z,14.81
2023-10-30T02:12:53.863Z,14.78
2023-10-30T02:15:20.326Z,14.75
2023-10-30T02:17:46.713Z,14.71
2023-10-30T02:20:13.151Z,14.68
2023-10-30T02:22:39.494Z,14.64
2023-10-30T02:25:06.008Z,14.61
2023-10-30T02:27:32.571Z,14.57
2023-10-30T02:29:58.975Z,14.53
2023-10-30T02:32:25.421Z,14.50
2023-10-30T02:34:52.074Z,14.48
2023-10-30T02:37:18.474Z,14.44
2023-10-30T02:39:44.949Z,14.40
2023-10-30T02:42:11.265Z,14.37
2023-10-30T02:44:37.777Z,14.35
2023-10-30T02:47:04.123Z,14.32
2023-10-30T02:49:30.651Z,14.28
2023-10-30T02:51:57.057Z,14.27
2023-10-30T02:54:23.469Z,14.24
2023-10-30T02:56:49.816Z,14.24
2023-10-30T02:59:16.258Z,14.24
2023-10-30T03:01:42.646Z,14.20
2023-10-30T03:04:09.365Z,14.20
2023-10-30T03:06:35.575Z,14.17
2023-10-30T03:09:02.003Z,14.12
2023-10-30T03:11:28.400Z,14.09
2023-10-30T03:13:54.854Z,14.07
2023-10-30T03:16:21.283Z,14.02
2023-10-30T03:18:47.839Z,13.99
2023-10-30T03:21:14.202Z,13.95
2023-10-30T03:23:40.625Z,13.90
2023-10-30T03:26:06.984Z,13.87
2023-10-30T03:28:33.378Z,13.84
2023-10-30T03:30:59.732Z,13.85
2023-10-30T03:33:26.261Z,13.87
2023-10-30T03:35:52.571Z,13.84
2023-10-30T03:38:19.011Z,13.83
2023-10-30T03:40:45.524Z,13.81
2023-10-30T03:43:11.962Z,13.78
2023-10-30T03:45:38.382Z,13.72
2023-10-30T03:48:04.874Z,13.70
2023-10-30T03:50:31.171Z,13.66
2023-10-30T03:52:57.699Z,13.65
2023-10-30T03:55:24.066Z,13.62
2023-10-30T03:57:50.783Z,13.63
2023-10-30T04:00:17.201Z,13.61
2023-10-30T04:02:43.548Z,13.57
2023-10-30T04:05:09.952Z,13.59
2023-10-30T04:07:36.379Z,13.55
2023-10-30T04:10:02.817Z,13.53
2023-10-30T04:12:29.189Z,13.49
2023-10-30T04:14:55.693Z,13.45
2023-10-30T04:17:22.043Z,13.47
2023-10-30T04:19:48.583Z,13.50
2023-10-30T04:22:14.889Z,13.52
2023-10-30T04:24:41.343Z,13.50
2023-10-30T04:27:07.714Z,13.52
2023-10-30T04:29:34.182Z,13.51
2023-10-30T04:32:00.575Z,13.51
2023-10-30T04:34:26.951Z,13.47
2023-10-30T04:36:53.485Z,13.45
2023-10-30T04:39:19.888Z,13.44
2023-10-30T04:41:46.224Z,13.41
2023-10-30T04:44:12.684Z,13.40
2023-10-30T04:46:39.069Z,13.43
2023-10-30T04:49:05.482Z,13.41
2023-10-30T04:51:31.928Z,13.34
2023-10-30T04:53:58.351Z,13.31
2023-10-30T04:56:24.673Z,13.29
2023-10-30T04:58:51.145Z,13.26
2023-10-30T05:01:17.525Z,13.28
2023-10-30T05:03:44.019Z,13.28
2023-10-30T05:06:10.377Z,13.23
2023-10-30T05:08:36.808Z,13.24
2023-10-30T05:11:03.164Z,13.28
2023-10-30T05:13:29.683Z,13.32
2023-10-30T05:15:56.106Z,13.36
2023-10-30T05:18:22.514Z,13.38
2023-10-30T05:20:48.820Z,13.41
2023-10-30T05:23:15.309Z,13.48
2023-10-30T05:25:43.196Z,13.55
2023-10-30T05:28:08.418Z,13.63
2023-10-30T05:30:35.009Z,13.73
2023-10-30T05:33:01.368Z,13.84
2023-10-30T05:35:27.701Z,13.92
2023-10-30T05:37:54.194Z,13.99
2023-10-30T05:40:20.646Z,14.10
2023-10-30T05:42:47.113Z,14.24
2023-10-30T05:45:13.558Z,14.44
2023-10-30T05:47:40.063Z,14.58
2023-10-30T05:50:06.309Z,14.72
2023-10-30T05:52:32.758Z,14.80
2023-10-30T05:54:59.111Z,14.87
2023-10-30T05:57:25.573Z,14.94
2023-10-30T05:59:52.005Z,14.97
2023-10-30T06:02:18.554Z,15.11
2023-10-30T06:04:44.895Z,15.17
2023-10-30T06:07:11.372Z,15.28
2023-10-30T06:09:37.782Z,15.40
2023-10-30T06:12:04.326Z,15.52
2023-10-30T06:14:30.864Z,15.65
2023-10-30T06:16:57.199Z,15.78
2023-10-30T06:19:23.587Z,15.96
2023-10-30T06:21:50.095Z,16.22
2023-10-30T06:24:16.449Z,16.34
2023-10-30T06:26:42.993Z,16.46
2023-10-30T06:29:09.335Z,16.60
2023-10-30T06:31:35.851Z,16.74
2023-10-30T06:34:02.239Z,16.97
2023-10-30T06:36:28.789Z,17.19
2023-10-30T06:38:55.346Z,17.36
2023-10-30T06:41:21.820Z,17.51
2023-10-30T06:43:48.181Z,17.66
2023-10-30T06:46:14.911Z,17.85
2023-10-30T06:48:41.298Z,18.02
2023-10-30T06:51:07.714Z,18.25
2023-10-30T06:53:34.075Z,18.32
2023-10-30T06:56:00.698Z,18.43
2023-10-30T06:58:27.220Z,18.75
2023-10-30T07:00:53.851Z,19.07
2023-10-30T07:03:21.553Z,19.35
2023-10-30T07:05:47.959Z,19.50
2023-10-30T07:08:14.737Z,19.67
2023-10-30T07:10:41.855Z,19.77
2023-10-30T07:13:08.419Z,19.96
2023-10-30T07:15:35.862Z,20.27
2023-10-30T07:18:04.439Z,20.58
2023-10-30T07:20:30.862Z,20.54
2023-10-30T07:22:57.218Z,20.62
2023-10-30T07:25:23.708Z,20.82
2023-10-30T07:27:50.246Z,21.03
2023-10-30T07:30:16.633Z,21.19
2023-10-30T07:32:43.049Z,21.32
2023-10-30T07:35:09.486Z,21.39
2023-10-30T07:37:35.968Z,21.55
2023-10-30T07:40:02.438Z,21.83
2023-10-30T07:42:28.890Z,22.05
2023-10-30T07:44:55.443Z,22.14
2023-10-30T07:47:33.045Z,22.34
2023-10-30T07:49:48.365Z,22.52
2023-10-30T07:52:14.889Z,22.51
2023-10-30T07:54:41.314Z,22.47
2023-10-30T07:57:07.647Z,22.50
2023-10-30T07:59:34.252Z,22.53
2023-10-30T08:02:00.661Z,22.60
2023-10-30T08:04:27.285Z,22.61
2023-10-30T08:06:53.664Z,22.79
2023-10-30T08:09:20.198Z,22.97
2023-10-30T08:11:46.670Z,23.19
2023-10-30T08:14:13.203Z,23.44
2023-10-30T08:16:39.655Z,23.75
2023-10-30T08:19:06.070Z,24.03
2023-10-30T08:21:32.502Z,24.33
2023-10-30T08:23:58.875Z,24.39
2023-10-30T08:26:25.270Z,24.41
2023-10-30T08:28:51.799Z,24.74
2023-10-30T08:31:18.160Z,24.80
2023-10-30T08:33:44.721Z,24.92
2023-10-30T08:36:11.207Z,25.18
2023-10-30T08:38:37.604Z,25.24
2023-10-30T08:41:03.982Z,24.94
2023-10-30T08:43:30.522Z,24.78
2023-10-30T08:45:56.974Z,24.94
2023-10-30T08:48:23.551Z,25.18
2023-10-30T08:50:49.830Z,25.48
2023-10-30T08:53:16.390Z,25.68
2023-10-30T08:55:42.949Z,25.72
2023-10-30T08:58:09.299Z,25.93
2023-10-30T09:00:35.691Z,26.09
2023-10-30T09:03:02.214Z,26.38
2023-10-30T09:05:28.831Z,26.59
2023-10-30T09:07:55.141Z,26.78
2023-10-30T09:10:21.518Z,26.70
2023-10-30T09:12:48.097Z,26.68
2023-10-30T09:15:14.395Z,26.84
2023-10-30T09:17:40.879Z,26.83
2023-10-30T09:20:07.302Z,26.94
2023-10-30T09:22:33.740Z,26.96
2023-10-30T09:25:00.153Z,26.84
2023-10-30T09:27:26.623Z,26.99
2023-10-30T09:29:52.930Z,27.32
2023-10-30T09:32:19.506Z,27.51
2023-10-30T09:34:45.825Z,27.63
2023-10-30T09:37:12.342Z,27.76
2023-10-30T09:39:38.826Z,28.02
2023-10-30T09:42:05.297Z,28.38
2023-10-30T09:44:31.701Z,28.77
2023-10-30T09:46:58.171Z,28.84
2023-10-30T09:49:24.700Z,28.95
2023-10-30T09:51:51.165Z,29.17
2023-10-30T09:54:17.572Z,29.27
2023-10-30T09:56:43.974Z,29.44
2023-10-30T09:59:10.337Z,29.50
2023-10-30T10:01:37.024Z,29.57
2023-10-30T10:04:03.308Z,29.72
2023-10-30T10:06:29.702Z,29.85
2023-10-30T10:08:56.042Z,29.91
2023-10-30T10:11:22.520Z,29.93
2023-10-30T10:14:03.784Z,29.88
2023-10-30T10:16:15.586Z,29.84
2023-10-30T10:18:41.925Z,29.91
2023-10-30T10:21:08.329Z,30.09
2023-10-30T10:23:34.787Z,30.16
2023-10-30T10:26:01.399Z,30.07
2023-10-30T10:28:27.768Z,30.21
2023-10-30T10:30:54.313Z,30.35
2023-10-30T10:33:23.711Z,30.32
2023-10-30T10:35:50.113Z,30.37
2023-10-30T10:38:16.564Z,30.53
2023-10-30T10:40:44.006Z,30.62
2023-10-30T10:43:09.527Z,30.68
2023-10-30T10:45:36.024Z,30.76
2023-10-30T10:48:02.513Z,30.72
2023-10-30T10:50:28.921Z,30.67
2023-10-30T10:52:55.321Z,30.71
2023-10-30T10:55:21.888Z,30.86
2023-10-30T10:57:48.346Z,30.89
2023-10-30T11:00:14.750Z,30.93
2023-10-30T11:02:41.227Z,30.86
2023-10-30T11:05:07.617Z,30.82
2023-10-30T11:07:34.050Z,30.66
2023-10-30T11:10:00.597Z,30.49
2023-10-30T11:12:26.869Z,30.50
2023-10-30T11:14:53.314Z,30.52
2023-10-30T11:17:19.709Z,30.56
2023-10-30T11:19:46.225Z,30.53
2023-10-30T11:22:12.570Z,30.42
2023-10-30T11:24:39.114Z,30.64
2023-10-30T11:27:05.389Z,30.78
2023-10-30T11:29:31.873Z,30.83
2023-10-30T11:31:58.304Z,30.91
2023-10-30T11:34:24.727Z,30.88
2023-10-30T11:36:51.097Z,30.87
2023-10-30T11:39:17.578Z,30.90
2023-10-30T11:41:44.011Z,31.01
2023-10-30T11:44:10.431Z,31.11
2023-10-30T11:46:36.908Z,31.29
2023-10-30T11:49:04.427Z,31.35
2023-10-30T11:51:30.855Z,31.35
2023-10-30T11:53:57.291Z,31.36
2023-10-30T11:56:23.653Z,31.44
2023-10-30T11:58:50.057Z,31.43
2023-10-30T12:01:16.514Z,31.39
2023-10-30T12:03:43.001Z,31.30
2023-10-30T12:06:09.288Z,31.26
2023-10-30T12:08:35.792Z,31.28
2023-10-30T12:11:02.147Z,31.08
2023-10-30T12:13:28.781Z,31.12
2023-10-30T12:15:55.219Z,31.14
2023-10-30T12:18:21.646Z,31.07
2023-10-30T12:20:48.004Z,31.01
2023-10-30T12:23:14.488Z,30.99
2023-10-30T12:25:40.870Z,31.01
2023-10-30T12:28:10.526Z,31.05
2023-10-30T12:30:37.194Z,31.09
2023-10-30T12:33:03.507Z,31.11
2023-10-30T12:35:29.871Z,31.08
2023-10-30T12:37:56.317Z,31.19
2023-10-30T12:40:22.709Z,31.22
2023-10-30T12:42:49.281Z,31.16
2023-10-30T12:45:15.736Z,31.01
2023-10-30T12:47:43.345Z,30.84
2023-10-30T12:50:09.641Z,30.71
2023-10-30T12:52:36.023Z,30.70
2023-10-30T12:55:02.551Z,30.68
2023-10-30T12:57:28.931Z,30.64
2023-10-30T12:59:55.555Z,30.52
2023-10-30T13:02:22.139Z,30.50
2023-10-30T13:04:48.641Z,30.55
2023-10-30T13:07:14.789Z,30.46
2023-10-30T13:09:41.259Z,30.38
2023-10-30T13:12:07.694Z,30.32
2023-10-30T13:14:34.045Z,30.27
2023-10-30T13:17:00.520Z,30.23
2023-10-30T13:19:27.084Z,30.25
2023-10-30T13:21:53.622Z,30.24
2023-10-30T13:24:19.967Z,30.22
2023-10-30T13:26:46.474Z,30.16
2023-10-30T13:29:13.128Z,29.93
2023-10-30T13:31:39.738Z,29.71
2023-10-30T13:34:06.304Z,29.58
2023-10-30T13:36:32.647Z,29.50
2023-10-30T13:38:58.960Z,29.37
2023-10-30T13:41:25.457Z,29.27
2023-10-30T13:43:53.500Z,29.17
2023-10-30T13:46:18.294Z,29.05
2023-10-30T13:48:44.680Z,29.01
2023-10-30T13:51:11.063Z,28.90
2023-10-30T13:53:37.415Z,28.80
2023-10-30T13:56:03.906Z,28.58
2023-10-30T13:58:30.303Z,28.44
2023-10-30T14:00:56.808Z,28.25
2023-10-30T14:03:23.200Z,28.08
2023-10-30T14:05:49.612Z,27.94
2023-10-30T14:08:16.013Z,27.76
2023-10-30T14:10:42.502Z,27.59
2023-10-30T14:13:09.008Z,27.49
2023-10-30T14:15:35.624Z,27.43
2023-10-30T14:18:02.004Z,27.41
2023-10-30T14:20:28.533Z,27.32
2023-10-30T14:22:54.922Z,27.12
2023-10-30T14:25:21.366Z,26.96
2023-10-30T14:27:47.847Z,26.82
2023-10-30T14:30:14.221Z,26.68
2023-10-30T14:32:40.793Z,26.57
2023-10-30T14:35:07.145Z,26.48
2023-10-30T14:37:33.638Z,26.43
2023-10-30T14:40:00.058Z,26.37
2023-10-30T14:42:26.416Z,26.30
2023-10-30T14:44:53.398Z,26.23
2023-10-30T14:47:19.899Z,26.15
2023-10-30T14:49:46.309Z,26.08
2023-10-30T14:52:12.724Z,25.99
2023-10-30T14:54:39.149Z,25.92
2023-10-30T14:57:05.727Z,25.84
2023-10-30T14:59:32.258Z,25.77
2023-10-30T15:01:58.712Z,25.71
2023-10-30T15:04:25.275Z,25.63
2023-10-30T15:06:51.989Z,25.59
2023-10-30T15:09:18.382Z,25.54
2023-10-30T15:11:44.842Z,25.48
2023-10-30T15:14:11.464Z,25.32
2023-10-30T15:16:39.285Z,25.16
2023-10-30T15:19:06.681Z,25.08
2023-10-30T15:21:33.138Z,24.99
2023-10-30T15:24:01.676Z,24.90
2023-10-30T15:26:28.132Z,24.80
2023-10-30T15:28:54.759Z,24.73
2023-10-30T15:31:21.166Z,24.65
2023-10-30T15:33:47.713Z,24.57
2023-10-30T15:36:14.186Z,24.52
2023-10-30T15:38:40.617Z,24.45
2023-10-30T15:41:07.057Z,24.35
2023-10-30T15:43:33.444Z,24.28
2023-10-30T15:45:59.980Z,24.17
2023-10-30T15:48:26.647Z,24.06
2023-10-30T15:50:55.308Z,23.95
2023-10-30T16:00:43.379Z,23.74
2023-10-30T16:08:02.828Z,23.62
2023-10-30T16:10:30.167Z,23.57
2023-10-30T16:12:55.690Z,23.49
2023-10-30T16:15:22.155Z,23.39
2023-10-30T16:18:20.675Z,23.31
2023-10-30T16:22:41.422Z,23.24
2023-10-30T16:25:09.211Z,23.32
2023-10-30T16:27:35.664Z,23.41
2023-10-30T16:30:02.120Z,23.34
2023-10-30T16:32:28.524Z,23.25
2023-10-30T16:34:54.982Z,23.19
2023-10-30T16:37:21.383Z,23.10
2023-10-30T16:39:48.080Z,22.98
2023-10-30T16:42:14.325Z,22.90
2023-10-30T16:44:40.754Z,22.86
2023-10-30T16:47:07.365Z,22.85
2023-10-30T16:49:33.749Z,22.85
2023-10-30T16:52:04.116Z,22.77
2023-10-30T16:54:30.529Z,22.74
2023-10-30T16:56:56.891Z,22.73
2023-10-30T16:59:23.287Z,22.73
2023-10-30T17:01:49.758Z,22.71
2023-10-30T17:04:16.231Z,22.70
2023-10-30T17:06:42.645Z,22.69
2023-10-30T17:09:09.075Z,22.64
2023-10-30T17:11:35.482Z,22.60
2023-10-30T17:14:01.959Z,22.55
2023-10-30T17:16:28.449Z,22.45
2023-10-30T17:18:54.909Z,22.39
2023-10-30T17:21:21.273Z,22.42
2023-10-30T17:23:47.869Z,22.42
2023-10-30T17:26:14.354Z,22.40
2023-10-30T17:28:40.874Z,22.31
2023-10-30T17:31:07.232Z,22.28
2023-10-30T17:33:36.229Z,22.25
2023-10-30T17:36:02.627Z,22.23
2023-10-30T17:38:29.150Z,22.20
2023-10-30T17:40:55.661Z,22.17
2023-10-30T17:43:22.142Z,22.08
2023-10-30T17:45:48.473Z,21.99
2023-10-30T17:48:15.027Z,21.96
2023-10-30T17:50:41.421Z,21.88
2023-10-30T17:53:07.989Z,21.84
2023-10-30T17:55:34.479Z,21.80
2023-10-30T17:58:00.844Z,21.82
2023-10-30T18:00:27.167Z,21.79
2023-10-30T18:02:53.761Z,21.74
2023-10-30T18:05:20.119Z,21.66
2023-10-30T18:07:48.472Z,21.63
2023-10-30T18:10:12.884Z,21.60
2023-10-30T18:12:39.416Z,21.57
2023-10-30T18:15:05.842Z,21.55
2023-10-30T18:17:32.448Z,21.49
2023-10-30T18:19:58.792Z,21.43
2023-10-30T18:22:25.303Z,21.40
2023-10-30T18:24:51.921Z,21.37
2023-10-30T18:27:18.432Z,21.38
2023-10-30T18:29:44.796Z,21.37
2023-10-30T18:32:11.336Z,21.33
2023-10-30T18:34:37.764Z,21.26
2023-10-30T18:37:04.406Z,21.23
2023-10-30T18:39:30.675Z,21.20
2023-10-30T18:41:57.142Z,21.15
2023-10-30T18:44:23.656Z,21.13
2023-10-30T18:46:50.210Z,21.11
2023-10-30T18:49:16.502Z,21.09
2023-10-30T18:51:42.948Z,21.07
2023-10-30T18:54:09.292Z,21.01
2023-10-30T18:56:35.843Z,20.97
2023-10-30T18:59:02.270Z,20.93
2023-10-30T19:01:28.705Z,20.90
2023-10-30T19:03:56.218Z,20.83
2023-10-30T19:06:21.557Z,20.81
2023-10-30T19:08:47.942Z,20.85
2023-10-30T19:11:14.366Z,20.78
2023-10-30T19:13:40.877Z,20.70
2023-10-30T19:16:07.324Z,20.69
2023-10-30T19:18:33.695Z,20.69
2023-10-30T19:21:00.193Z,20.66
2023-10-30T19:23:26.590Z,20.63
2023-10-30T19:25:53.280Z,20.65
2023-10-30T19:28:19.591Z,20.65
2023-10-30T19:30:46.062Z,20.59
2023-10-30T19:33:12.539Z,20.50
2023-10-30T19:35:38.967Z,20.40
2023-10-30T19:38:05.431Z,20.36
2023-10-30T19:40:34.205Z,20.29
2023-10-30T19:43:01.741Z,20.22
2023-10-30T19:45:28.541Z,20.18
2023-10-30T19:47:54.869Z,20.05
2023-10-30T19:50:21.471Z,19.95
2023-10-30T19:52:47.859Z,20.02
2023-10-30T19:55:16.486Z,20.09
2023-10-30T19:57:42.883Z,20.13
2023-10-30T20:00:09.374Z,20.21
2023-10-30T20:02:36.884Z,20.14
2023-10-30T20:05:03.253Z,20.02
2023-10-30T20:07:30.367Z,19.91
2023-10-30T20:10:09.191Z,19.84
2023-10-30T20:12:23.344Z,19.76
2023-10-30T20:14:51.855Z,19.68
2023-10-30T20:17:18.382Z,19.65
2023-10-30T20:19:44.784Z,19.62
2023-10-30T20:22:11.307Z,19.63
2023-10-30T20:24:37.861Z,19.59
2023-10-30T20:27:04.228Z,19.58
2023-10-30T20:29:30.747Z,19.55
2023-10-30T20:31:57.520Z,19.51
2023-10-30T20:34:23.890Z,19.45
2023-10-30T20:36:50.244Z,19.38
2023-10-30T20:39:17.067Z,19.33
2023-10-30T20:41:43.502Z,19.27
2023-10-30T20:44:09.944Z,19.23
2023-10-30T20:46:36.382Z,19.16
2023-10-30T20:49:03.007Z,19.07
2023-10-30T20:51:29.453Z,18.98
2023-10-30T20:53:57.011Z,19.00
2023-10-30T20:56:23.437Z,18.98
2023-10-30T20:58:49.899Z,18.99
2023-10-30T21:01:16.293Z,18.97
2023-10-30T21:03:42.660Z,18.93
2023-10-30T21:06:09.140Z,18.85
2023-10-30T21:08:35.509Z,18.84
2023-10-30T21:11:01.860Z,18.83
2023-10-30T21:13:28.480Z,18.79
2023-10-30T21:15:54.971Z,18.74
2023-10-30T21:18:21.221Z,18.69
2023-10-30T21:20:47.620Z,18.66
2023-10-30T21:23:14.106Z,18.63
2023-10-30T21:25:40.503Z,18.57
2023-10-30T21:28:06.957Z,18.54
2023-10-30T21:30:33.413Z,18.48
2023-10-30T21:32:59.981Z,18.42
2023-10-30T21:35:26.356Z,18.38
2023-10-30T21:37:52.784Z,18.34
2023-10-30T21:40:19.535Z,18.28
2023-10-30T21:42:45.978Z,18.22
2023-10-30T21:45:12.406Z,18.16
2023-10-30T21:47:38.875Z,18.11
2023-10-30T21:50:05.259Z,18.07
2023-10-30T21:52:31.858Z,18.09
2023-10-30T21:54:58.207Z,18.08
2023-10-30T21:57:24.790Z,18.08
2023-10-30T21:59:51.210Z,18.02
2023-10-30T22:02:17.859Z,17.97
2023-10-30T22:04:44.211Z,17.96
2023-10-30T22:07:12.978Z,17.98
2023-10-30T22:09:39.520Z,17.97
2023-10-30T22:12:05.929Z,17.93
2023-10-30T22:14:32.363Z,17.91
2023-10-30T22:16:58.899Z,17.85
2023-10-30T22:19:25.320Z,17.78
2023-10-30T22:21:51.722Z,17.74
2023-10-30T22:24:18.203Z,17.71
2023-10-30T22:26:44.649Z,17.68
2023-10-30T22:29:11.022Z,17.66
2023-10-30T22:31:37.537Z,17.63
2023-10-30T22:34:03.936Z,17.60
2023-10-30T22:36:30.490Z,17.58
2023-10-30T22:38:56.922Z,17.54
2023-10-30T22:41:23.364Z,17.46
2023-10-30T22:43:49.896Z,17.41
2023-10-30T22:46:16.288Z,17.39
2023-10-30T22:48:42.620Z,17.37
2023-10-30T22:51:09.072Z,17.36
2023-10-30T22:53:35.477Z,17.33
2023-10-30T22:56:01.992Z,17.32
2023-10-30T22:58:28.321Z,17.25
2023-10-30T23:00:54.858Z,17.21
2023-10-30T23:03:21.193Z,17.16
2023-10-30T23:05:47.690Z,17.09
2023-10-30T23:08:14.221Z,17.01
2023-10-30T23:10:40.555Z,16.95
2023-10-30T23:13:06.890Z,16.92
2023-10-30T23:15:33.408Z,16.93
2023-10-30T23:17:59.818Z,16.95
2023-10-30T23:20:26.257Z,16.93
2023-10-30T23:22:52.665Z,16.93
2023-10-30T23:25:19.147Z,16.89
2023-10-30T23:27:45.485Z,16.88
2023-10-30T23:30:12.000Z,16.90
2023-10-30T23:32:38.570Z,16.83
2023-10-30T23:35:04.999Z,16.77
2023-10-30T23:37:31.410Z,16.70
2023-10-30T23:39:57.830Z,16.63
2023-10-30T23:42:24.788Z,16.57
2023-10-30T23:44:51.205Z,16.55
2023-10-30T23:47:17.620Z,16.50
2023-10-30T23:49:44.124Z,16.49
2023-10-30T23:52:10.508Z,16.46
2023-10-30T23:54:38.506Z,16.44
2023-10-30T23:57:03.376Z,16.43
2023-10-30T23:59:29.823Z,16.43
